createdAt,value
2018-01-22T00:00:28.873Z,11.17
2018-01-22T00:02:56.663Z,11.23
2018-01-22T00:05:24.416Z,10.23
2018-01-22T00:07:52.241Z,10.00
2018-01-22T00:10:20.040Z,9.50
2018-01-22T00:12:47.784Z,9.13
2018-01-22T00:15:15.620Z,8.43
2018-01-22T00:17:44.215Z,8.57
2018-01-22T00:20:11.918Z,10.20
2018-01-22T00:22:39.714Z,10.67
2018-01-22T00:25:08.306Z,10.73
2018-01-22T00:27:36.083Z,10.17
2018-01-22T00:30:03.919Z,10.60
2018-01-22T00:32:32.535Z,11.00
2018-01-22T00:35:00.251Z,11.83
2018-01-22T00:37:27.902Z,8.57
2018-01-22T00:39:55.551Z,8.37
2018-01-22T00:42:23.221Z,10.60
2018-01-22T00:44:51.660Z,12.57
2018-01-22T00:47:20.133Z,9.37
2018-01-22T00:49:47.763Z,10.13
2018-01-22T00:52:15.393Z,8.90
2018-01-22T00:54:43.117Z,10.20
2018-01-22T00:57:10.768Z,7.80
2018-01-22T00:59:38.643Z,10.60
2018-01-22T01:02:06.318Z,8.30
2018-01-22T01:04:34.725Z,7.23
2018-01-22T01:07:02.419Z,7.77
2018-01-22T01:09:30.057Z,7.10
2018-01-22T01:11:57.776Z,7.47
2018-01-22T01:14:25.455Z,9.87
2018-01-22T01:16:53.097Z,10.40
2018-01-22T01:19:20.771Z,8.50
2018-01-22T01:21:49.171Z,7.33
2018-01-22T01:24:16.832Z,7.60
2018-01-22T01:26:44.460Z,7.57
2018-01-22T01:29:12.138Z,6.17
2018-01-22T01:31:40.536Z,7.97
2018-01-22T01:34:08.191Z,7.73
2018-01-22T01:36:35.866Z,7.63
2018-01-22T01:39:03.527Z,9.60
2018-01-22T01:41:31.143Z,8.27
2018-01-22T01:43:58.796Z,7.97
2018-01-22T01:46:26.411Z,6.93
2018-01-22T01:49:03.941Z,7.60
2018-01-22T01:51:32.361Z,8.40
2018-01-22T01:54:00.085Z,9.77
2018-01-22T01:56:27.741Z,7.87
2018-01-22T01:58:55.401Z,7.53
2018-01-22T02:01:23.161Z,11.23
2018-01-22T02:03:50.791Z,6.90
2018-01-22T02:06:18.417Z,7.73
2018-01-22T02:08:46.158Z,7.07
2018-01-22T02:11:13.782Z,7.40
2018-01-22T02:13:41.403Z,6.13
2018-01-22T02:16:09.113Z,4.77
2018-01-22T02:18:36.762Z,10.30
2018-01-22T02:21:04.463Z,9.03
2018-01-22T02:23:32.128Z,8.30
2018-01-22T02:25:59.748Z,6.40
2018-01-22T02:28:27.445Z,9.87
2018-01-22T02:30:55.086Z,7.10
2018-01-22T02:33:22.721Z,6.00
2018-01-22T02:35:51.155Z,7.10
2018-01-22T02:38:18.860Z,6.10
2018-01-22T02:40:47.247Z,6.83
2018-01-22T02:43:14.861Z,7.47
2018-01-22T02:45:42.560Z,6.57
2018-01-22T02:48:10.940Z,7.37
2018-01-22T02:50:39.380Z,6.07
2018-01-22T02:53:07.034Z,8.60
2018-01-22T02:55:34.731Z,7.07
2018-01-22T02:58:03.142Z,7.13
2018-01-22T03:00:30.789Z,7.97
2018-01-22T03:02:59.147Z,6.80
2018-01-22T03:05:26.777Z,10.10
2018-01-22T03:07:54.448Z,9.80
2018-01-22T03:10:22.101Z,9.63
2018-01-22T03:12:49.758Z,9.23
2018-01-22T03:15:17.467Z,9.37
2018-01-22T03:17:45.885Z,10.10
2018-01-22T03:20:13.506Z,10.10
2018-01-22T03:22:41.960Z,10.03
2018-01-22T03:25:09.622Z,9.57
2018-01-22T03:27:37.321Z,10.33
2018-01-22T03:30:04.993Z,10.10
2018-01-22T03:32:32.619Z,10.40
2018-01-22T03:35:00.305Z,9.33
2018-01-22T03:37:28.695Z,10.43
2018-01-22T03:39:56.356Z,12.27
2018-01-22T03:42:24.034Z,11.50
2018-01-22T03:44:51.687Z,9.93
2018-01-22T03:47:19.361Z,10.50
2018-01-22T03:49:46.995Z,12.60
2018-01-22T03:52:15.445Z,9.40
2018-01-22T03:54:43.093Z,14.37
2018-01-22T03:57:10.759Z,9.93
2018-01-22T03:59:38.416Z,12.27
2018-01-22T04:02:06.110Z,14.90
2018-01-22T04:04:33.749Z,11.50
2018-01-22T04:07:01.378Z,12.77
2018-01-22T04:09:29.101Z,13.73
2018-01-22T04:11:56.723Z,10.33
2018-01-22T04:14:24.419Z,10.90
2018-01-22T04:16:52.817Z,13.87
2018-01-22T04:19:20.442Z,12.50
2018-01-22T04:21:48.130Z,11.03
2018-01-22T04:24:16.545Z,10.50
2018-01-22T04:26:44.203Z,11.93
2018-01-22T04:29:11.890Z,13.07
2018-01-22T04:31:39.525Z,12.77
2018-01-22T04:34:07.191Z,16.10
2018-01-22T04:36:34.851Z,12.70
2018-01-22T04:39:02.470Z,15.70
2018-01-22T04:41:30.900Z,19.10
2018-01-22T04:43:58.676Z,23.40
2018-01-22T04:46:26.365Z,20.03
2018-01-22T04:48:53.981Z,24.20
2018-01-22T04:51:21.660Z,23.60
2018-01-22T04:53:49.295Z,20.83
2018-01-22T04:56:16.942Z,23.00
2018-01-22T04:58:44.633Z,21.20
2018-01-22T05:01:12.289Z,20.40
2018-01-22T05:03:40.131Z,26.07
2018-01-22T05:06:07.961Z,24.47
2018-01-22T05:08:35.777Z,26.07
2018-01-22T05:11:03.556Z,24.17
2018-01-22T05:13:31.249Z,22.73
2018-01-22T05:15:58.877Z,22.60
2018-01-22T05:18:26.580Z,22.87
2018-01-22T05:20:54.236Z,19.90
2018-01-22T05:23:21.899Z,20.60
2018-01-22T05:25:49.580Z,23.03
2018-01-22T05:28:18.005Z,25.27
2018-01-22T05:30:45.643Z,20.43
2018-01-22T05:33:13.310Z,17.00
2018-01-22T05:35:40.979Z,21.43
2018-01-22T05:38:08.621Z,27.30
2018-01-22T05:40:37.009Z,27.87
2018-01-22T05:43:04.688Z,18.70
2018-01-22T05:45:32.330Z,16.80
2018-01-22T05:47:59.976Z,23.43
2018-01-22T05:50:28.401Z,17.77
2018-01-22T05:52:56.051Z,19.97
2018-01-22T05:55:23.715Z,21.83
2018-01-22T05:57:51.370Z,30.67
2018-01-22T06:00:19.025Z,31.73
2018-01-22T06:02:46.669Z,36.37
2018-01-22T06:05:15.089Z,29.53
2018-01-22T06:07:42.744Z,22.00
2018-01-22T06:10:10.401Z,19.20
2018-01-22T06:12:38.047Z,24.83
2018-01-22T06:15:05.710Z,24.10
2018-01-22T06:17:33.347Z,17.77
2018-01-22T06:20:01.751Z,16.50
2018-01-22T06:22:29.431Z,19.10
2018-01-22T06:24:57.075Z,22.77
2018-01-22T06:27:24.735Z,20.60
2018-01-22T06:29:52.359Z,23.27
2018-01-22T06:32:20.047Z,17.80
2018-01-22T06:34:48.492Z,19.90
2018-01-22T06:37:16.146Z,18.43
2018-01-22T06:39:43.818Z,21.77
2018-01-22T06:42:11.481Z,21.57
2018-01-22T06:44:39.097Z,23.30
2018-01-22T06:47:06.760Z,19.90
2018-01-22T06:49:34.411Z,19.60
2018-01-22T06:52:02.096Z,18.00
2018-01-22T06:54:29.818Z,22.23
2018-01-22T06:56:57.648Z,23.70
2018-01-22T06:59:25.670Z,20.17
2018-01-22T07:01:53.747Z,19.80
2018-01-22T07:04:21.432Z,17.83
2018-01-22T07:06:49.194Z,29.60
2018-01-22T07:09:16.864Z,24.87
2018-01-22T07:11:44.550Z,24.17
2018-01-22T07:14:12.174Z,22.47
2018-01-22T07:16:39.827Z,16.20
2018-01-22T07:19:07.614Z,18.53
2018-01-22T07:21:35.246Z,17.60
2018-01-22T07:24:02.862Z,18.10
2018-01-22T07:26:30.541Z,20.47
2018-01-22T07:28:58.961Z,20.40
2018-01-22T07:31:26.607Z,24.07
2018-01-22T07:33:54.337Z,20.80
2018-01-22T07:36:22.743Z,22.77
2018-01-22T07:38:50.375Z,24.67
2018-01-22T07:41:18.062Z,28.50
2018-01-22T07:43:46.509Z,26.33
2018-01-22T07:46:14.190Z,26.17
2018-01-22T07:48:42.733Z,22.40
2018-01-22T07:51:10.420Z,22.70
2018-01-22T07:53:38.161Z,23.90
2018-01-22T07:56:05.833Z,24.93
2018-01-22T07:58:33.458Z,25.20
2018-01-22T08:01:01.095Z,24.20
2018-01-22T08:03:29.627Z,22.50
2018-01-22T08:05:57.263Z,21.00
2018-01-22T08:08:24.951Z,20.80
2018-01-22T08:10:52.609Z,20.40
2018-01-22T08:13:20.465Z,22.30
2018-01-22T08:15:48.244Z,23.83
2018-01-22T08:18:15.948Z,27.27
2018-01-22T08:20:44.724Z,18.63
2018-01-22T08:23:12.762Z,23.23
2018-01-22T08:25:40.392Z,19.60
2018-01-22T08:28:08.082Z,17.13
2018-01-22T08:30:35.763Z,18.40
2018-01-22T08:33:03.426Z,19.30
2018-01-22T08:35:31.087Z,20.03
2018-01-22T08:37:58.769Z,18.60
2018-01-22T08:40:26.397Z,21.73
2018-01-22T08:42:54.055Z,14.73
2018-01-22T08:45:23.354Z,24.50
2018-01-22T08:47:51.002Z,20.90
2018-01-22T08:50:18.675Z,19.00
2018-01-22T08:52:46.322Z,16.83
2018-01-22T08:55:13.984Z,18.73
2018-01-22T08:57:41.602Z,19.60
2018-01-22T09:00:09.243Z,18.53
2018-01-22T09:02:36.900Z,24.20
2018-01-22T09:05:04.528Z,19.83
2018-01-22T09:07:32.207Z,23.87
2018-01-22T09:09:59.866Z,20.37
2018-01-22T09:12:27.538Z,18.83
2018-01-22T09:14:55.222Z,22.00
2018-01-22T09:17:22.881Z,24.90
2018-01-22T09:19:50.558Z,20.33
2018-01-22T09:22:18.987Z,26.03
2018-01-22T09:24:46.638Z,21.73
2018-01-22T09:27:14.299Z,21.23
2018-01-22T09:29:41.934Z,26.70
2018-01-22T09:32:10.384Z,20.07
2018-01-22T09:34:38.379Z,24.70
2018-01-22T09:37:06.771Z,25.30
2018-01-22T09:39:34.487Z,23.67
2018-01-22T09:42:02.114Z,25.43
2018-01-22T09:44:29.761Z,29.90
2018-01-22T09:46:58.189Z,28.17
2018-01-22T09:49:25.842Z,25.83
2018-01-22T09:51:53.502Z,25.37
2018-01-22T09:54:21.161Z,23.77
2018-01-22T09:56:48.831Z,22.70
2018-01-22T09:59:16.474Z,20.77
2018-01-22T10:01:44.107Z,32.60
2018-01-22T10:04:11.762Z,28.80
2018-01-22T10:06:40.153Z,38.33
2018-01-22T10:09:07.957Z,31.13
2018-01-22T10:11:35.594Z,56.97
2018-01-22T10:14:03.247Z,29.00
2018-01-22T10:16:30.888Z,34.50
2018-01-22T10:18:58.525Z,27.13
2018-01-22T10:21:26.179Z,30.70
2018-01-22T10:23:53.822Z,25.03
2018-01-22T10:26:21.460Z,26.27
2018-01-22T10:28:49.126Z,26.23
2018-01-22T10:31:16.789Z,27.37
2018-01-22T10:33:44.467Z,26.20
2018-01-22T10:36:12.123Z,30.37
2018-01-22T10:38:39.800Z,29.60
2018-01-22T10:41:07.483Z,29.77
2018-01-22T10:43:35.166Z,32.33
2018-01-22T10:46:03.598Z,34.47
2018-01-22T10:48:31.219Z,35.33
2018-01-22T10:50:59.665Z,30.17
2018-01-22T10:53:27.316Z,30.00
2018-01-22T10:55:55.715Z,26.70
2018-01-22T10:58:23.371Z,30.20
2018-01-22T11:00:51.058Z,33.03
2018-01-22T11:03:19.464Z,26.00
2018-01-22T11:05:47.108Z,26.03
2018-01-22T11:08:15.545Z,27.67
2018-01-22T11:10:43.199Z,33.13
2018-01-22T11:13:10.871Z,33.70
2018-01-22T11:15:44.282Z,26.53
2018-01-22T11:18:11.919Z,21.83
2018-01-22T11:20:39.561Z,26.43
2018-01-22T11:23:07.526Z,28.33
2018-01-22T11:25:35.437Z,23.17
2018-01-22T11:28:03.171Z,26.63
2018-01-22T11:30:30.785Z,31.20
2018-01-22T11:32:59.217Z,26.70
2018-01-22T11:35:26.867Z,26.47
2018-01-22T11:37:54.883Z,32.23
2018-01-22T11:40:23.272Z,34.43
2018-01-22T11:42:51.660Z,34.83
2018-01-22T11:45:20.073Z,37.50
2018-01-22T11:47:47.731Z,48.90
2018-01-22T11:50:15.389Z,66.20
2018-01-22T11:52:43.034Z,71.87
2018-01-22T11:55:10.730Z,53.37
2018-01-22T11:57:38.397Z,50.07
2018-01-22T12:00:06.035Z,47.37
2018-01-22T12:02:33.701Z,47.50
2018-01-22T12:05:01.350Z,51.20
2018-01-22T12:07:29.037Z,55.30
2018-01-22T12:09:56.687Z,64.83
2018-01-22T12:12:24.316Z,58.97
2018-01-22T12:14:52.775Z,50.37
2018-01-22T12:17:20.459Z,77.87
2018-01-22T12:19:48.869Z,53.77
2018-01-22T12:22:16.525Z,74.97
2018-01-22T12:24:44.156Z,64.73
2018-01-22T12:27:12.586Z,58.70
2018-01-22T12:29:40.243Z,51.57
2018-01-22T12:32:07.914Z,54.20
2018-01-22T12:34:35.552Z,54.40
2018-01-22T12:37:03.188Z,52.90
2018-01-22T12:39:31.109Z,43.23
2018-01-22T12:41:58.743Z,40.23
2018-01-22T12:44:26.377Z,51.03
2018-01-22T12:46:54.823Z,50.00
2018-01-22T12:49:22.499Z,38.47
2018-01-22T12:51:50.155Z,34.20
2018-01-22T12:54:17.791Z,30.93
2018-01-22T12:56:45.423Z,26.93
2018-01-22T12:59:13.086Z,24.57
2018-01-22T13:01:40.717Z,21.70
2018-01-22T13:04:09.122Z,32.47
2018-01-22T13:06:36.787Z,28.13
2018-01-22T13:09:04.479Z,42.77
2018-01-22T13:11:32.103Z,25.93
2018-01-22T13:13:59.742Z,15.77
2018-01-22T13:16:27.413Z,18.93
2018-01-22T13:18:55.832Z,20.20
2018-01-22T13:21:23.535Z,21.00
2018-01-22T13:23:51.935Z,17.93
2018-01-22T13:26:20.334Z,17.87
2018-01-22T13:28:47.985Z,19.73
2018-01-22T13:31:15.632Z,16.33
2018-01-22T13:33:44.081Z,17.57
2018-01-22T13:36:11.747Z,13.90
2018-01-22T13:38:39.393Z,19.23
2018-01-22T13:41:13.026Z,17.00
2018-01-22T13:43:41.450Z,15.77
2018-01-22T13:46:09.082Z,15.73
2018-01-22T13:48:37.526Z,9.30
2018-01-22T13:51:05.168Z,6.17
2018-01-22T13:53:32.798Z,4.90
2018-01-22T13:56:00.450Z,8.07
2018-01-22T13:58:28.868Z,4.70
2018-01-22T14:00:56.503Z,3.63
2018-01-22T14:03:24.211Z,8.33
2018-01-22T14:05:51.859Z,8.30
2018-01-22T14:08:19.491Z,6.30
2018-01-22T14:10:47.171Z,8.97
2018-01-22T14:13:14.915Z,10.77
2018-01-22T14:15:42.709Z,8.87
2018-01-22T14:18:11.992Z,7.23
2018-01-22T14:20:39.787Z,7.07
2018-01-22T14:23:08.225Z,4.07
2018-01-22T14:25:35.863Z,6.00
2018-01-22T14:28:04.414Z,7.60
2018-01-22T14:30:33.701Z,9.03
2018-01-22T14:33:02.423Z,4.77
2018-01-22T14:35:30.879Z,5.30
2018-01-22T14:37:58.522Z,6.00
2018-01-22T14:40:26.138Z,5.53
2018-01-22T14:42:54.601Z,5.10
2018-01-22T14:45:22.235Z,14.60
2018-01-22T14:47:49.870Z,7.57
2018-01-22T14:50:17.562Z,5.50
2018-01-22T14:52:46.242Z,7.20
2018-01-22T14:55:13.855Z,6.93
2018-01-22T14:57:41.491Z,5.03
2018-01-22T15:00:09.130Z,13.57
2018-01-22T15:02:36.737Z,7.70
2018-01-22T15:05:05.154Z,7.27
2018-01-22T15:07:33.828Z,23.27
2018-01-22T15:10:01.491Z,80.43
2018-01-22T15:12:29.185Z,32.70
2018-01-22T15:14:57.548Z,36.50
2018-01-22T15:17:25.189Z,42.33
2018-01-22T15:19:52.864Z,48.73
2018-01-22T15:22:20.542Z,52.33
2018-01-22T15:24:48.246Z,24.93
2018-01-22T15:27:16.708Z,23.47
2018-01-22T15:29:44.377Z,22.37
2018-01-22T15:32:13.851Z,31.73
2018-01-22T15:34:41.515Z,30.83
2018-01-22T15:37:09.309Z,21.33
2018-01-22T15:39:37.754Z,17.40
2018-01-22T15:42:05.435Z,22.67
2018-01-22T15:44:33.072Z,21.00
2018-01-22T15:47:00.744Z,17.13
2018-01-22T15:49:29.420Z,19.53
2018-01-22T15:51:59.010Z,15.10
2018-01-22T15:54:26.630Z,9.53
2018-01-22T15:56:55.069Z,11.60
2018-01-22T15:59:22.722Z,6.90
2018-01-22T16:01:50.370Z,6.03
2018-01-22T16:04:18.024Z,5.63
2018-01-22T16:06:45.709Z,39.13
2018-01-22T16:09:13.397Z,26.70
2018-01-22T16:11:41.048Z,10.43
2018-01-22T16:14:08.722Z,12.13
2018-01-22T16:16:37.371Z,6.40
2018-01-22T16:19:04.990Z,5.90
2018-01-22T16:21:34.487Z,8.67
2018-01-22T16:24:02.139Z,10.13
2018-01-22T16:26:29.860Z,8.00
2018-01-22T16:28:57.465Z,24.10
2018-01-22T16:31:25.139Z,38.13
2018-01-22T16:33:53.584Z,20.30
2018-01-22T16:36:21.276Z,19.17
2018-01-22T16:38:49.700Z,21.67
2018-01-22T16:41:17.362Z,11.67
2018-01-22T16:43:45.025Z,9.40
2018-01-22T16:46:12.719Z,10.20
2018-01-22T16:48:41.424Z,26.60
2018-01-22T16:51:09.090Z,76.00
2018-01-22T16:53:36.777Z,86.47
2018-01-22T16:56:04.487Z,74.20
2018-01-22T16:58:32.180Z,109.80
2018-01-22T17:00:59.844Z,154.97
2018-01-22T17:03:28.329Z,30.27
2018-01-22T17:05:56.775Z,182.63
2018-01-22T17:08:24.434Z,43.17
2018-01-22T17:10:52.121Z,49.10
2018-01-22T17:13:19.766Z,55.17
2018-01-22T17:15:47.654Z,37.07
2018-01-22T17:18:15.305Z,45.57
2018-01-22T17:20:43.000Z,38.43
2018-01-22T17:23:11.390Z,126.10
2018-01-22T17:25:39.868Z,44.80
2018-01-22T17:28:07.782Z,44.17
2018-01-22T17:30:36.208Z,57.13
2018-01-22T17:33:04.636Z,80.60
2018-01-22T17:35:32.278Z,58.50
2018-01-22T17:37:59.947Z,40.40
2018-01-22T17:40:27.610Z,25.67
2018-01-22T17:42:55.265Z,24.07
2018-01-22T17:45:22.901Z,25.83
2018-01-22T17:47:51.327Z,21.50
2018-01-22T17:50:19.016Z,23.30
2018-01-22T17:52:46.678Z,23.77
2018-01-22T17:55:14.391Z,25.60
2018-01-22T17:57:42.027Z,21.53
2018-01-22T18:00:10.495Z,19.37
2018-01-22T18:02:38.935Z,12.07
2018-01-22T18:05:06.587Z,13.30
2018-01-22T18:07:34.287Z,22.43
2018-01-22T18:10:01.944Z,26.70
2018-01-22T18:12:29.635Z,20.33
2018-01-22T18:14:58.182Z,16.67
2018-01-22T18:17:26.840Z,30.17
2018-01-22T18:19:54.685Z,28.93
2018-01-22T18:22:22.367Z,36.87
2018-01-22T18:24:50.070Z,33.00
2018-01-22T18:27:17.735Z,75.63
2018-01-22T18:29:46.191Z,51.23
2018-01-22T18:32:13.828Z,24.67
2018-01-22T18:34:41.648Z,62.40
2018-01-22T18:37:10.076Z,21.87
2018-01-22T18:39:37.705Z,19.90
2018-01-22T18:42:06.654Z,19.73
2018-01-22T18:44:34.287Z,28.90
2018-01-22T18:47:01.954Z,18.60
2018-01-22T18:49:29.625Z,42.50
2018-01-22T18:51:57.404Z,64.80
2018-01-22T18:54:25.031Z,52.33
2018-01-22T18:56:52.675Z,139.87
2018-01-22T18:59:21.112Z,245.83
2018-01-22T19:01:48.795Z,234.97
2018-01-22T19:04:17.258Z,86.30
2018-01-22T19:06:45.694Z,17.70
2018-01-22T19:09:13.319Z,62.63
2018-01-22T19:11:41.758Z,19.93
2018-01-22T19:14:09.419Z,231.40
2018-01-22T19:16:37.111Z,48.23
2018-01-22T19:19:04.766Z,20.37
2018-01-22T19:21:32.440Z,17.63
2018-01-22T19:24:00.121Z,20.30
2018-01-22T19:26:28.516Z,20.90
2018-01-22T19:28:56.215Z,20.90
2018-01-22T19:31:23.846Z,27.90
2018-01-22T19:33:51.624Z,26.97
2018-01-22T19:36:19.350Z,33.17
2018-01-22T19:38:47.784Z,33.87
2018-01-22T19:41:15.603Z,49.90
2018-01-22T19:43:43.273Z,28.00
2018-01-22T19:46:10.955Z,26.23
2018-01-22T19:48:38.643Z,113.80
2018-01-22T19:51:06.307Z,112.30
2018-01-22T19:53:33.996Z,88.50
2018-01-22T19:56:02.435Z,39.47
2018-01-22T19:58:30.080Z,20.70
2018-01-22T20:00:57.792Z,14.23
2018-01-22T20:03:26.209Z,17.00
2018-01-22T20:05:53.856Z,15.57
2018-01-22T20:08:22.304Z,26.33
2018-01-22T20:10:49.992Z,16.47
2018-01-22T20:13:18.455Z,13.77
2018-01-22T20:15:46.099Z,17.20
2018-01-22T20:18:13.753Z,18.20
2018-01-22T20:20:41.411Z,9.43
2018-01-22T20:23:09.095Z,14.20
2018-01-22T20:25:36.774Z,17.20
2018-01-22T20:28:05.219Z,23.13
2018-01-22T20:30:32.908Z,31.87
2018-01-22T20:33:00.593Z,24.53
2018-01-22T20:35:29.042Z,50.57
2018-01-22T20:37:56.716Z,16.43
2018-01-22T20:40:24.357Z,118.40
2018-01-22T20:42:52.037Z,57.43
2018-01-22T20:45:19.711Z,13.80
2018-01-22T20:47:48.149Z,17.50
2018-01-22T20:50:15.803Z,11.00
2018-01-22T20:52:43.511Z,9.30
2018-01-22T20:55:11.161Z,34.23
2018-01-22T20:57:38.896Z,15.03
2018-01-22T21:00:06.569Z,15.77
2018-01-22T21:02:34.220Z,16.80
2018-01-22T21:05:01.894Z,33.90
2018-01-22T21:07:29.579Z,98.67
2018-01-22T21:09:57.240Z,25.13
2018-01-22T21:12:25.651Z,70.30
2018-01-22T21:14:53.368Z,193.83
2018-01-22T21:17:21.030Z,25.07
2018-01-22T21:19:48.695Z,39.43
2018-01-22T21:22:16.362Z,36.10
2018-01-22T21:24:44.049Z,88.40
2018-01-22T21:27:12.477Z,225.43
2018-01-22T21:29:40.155Z,220.07
2018-01-22T21:32:07.851Z,75.07
2018-01-22T21:34:36.257Z,203.40
2018-01-22T21:37:03.920Z,97.70
2018-01-22T21:39:31.628Z,304.13
2018-01-22T21:41:59.271Z,95.83
2018-01-22T21:44:26.927Z,153.40
2018-01-22T21:46:54.588Z,218.93
2018-01-22T21:49:22.297Z,230.27
2018-01-22T21:51:50.711Z,290.83
2018-01-22T21:54:18.356Z,221.43
2018-01-22T21:56:46.307Z,318.43
2018-01-22T21:59:13.992Z,168.17
2018-01-22T22:01:41.665Z,33.53
2018-01-22T22:04:09.369Z,38.10
2018-01-22T22:06:37.079Z,19.43
2018-01-22T22:09:04.728Z,50.97
2018-01-22T22:11:33.197Z,34.50
2018-01-22T22:14:01.599Z,26.33
2018-01-22T22:16:29.294Z,14.20
2018-01-22T22:18:56.943Z,18.80
2018-01-22T22:21:24.632Z,18.60
2018-01-22T22:23:52.295Z,15.43
2018-01-22T22:26:19.965Z,20.33
2018-01-22T22:28:47.631Z,24.20
2018-01-22T22:31:15.275Z,14.50
2018-01-22T22:33:42.991Z,19.80
2018-01-22T22:36:10.673Z,20.30
2018-01-22T22:38:38.358Z,20.63
2018-01-22T22:41:06.051Z,16.83
2018-01-22T22:43:34.509Z,15.90
2018-01-22T22:46:02.182Z,15.33
2018-01-22T22:48:29.846Z,15.57
2018-01-22T22:50:57.512Z,17.07
2018-01-22T22:53:25.159Z,15.27
2018-01-22T22:55:52.839Z,13.70
2018-01-22T22:58:21.274Z,19.07
2018-01-22T23:00:48.915Z,17.90
2018-01-22T23:03:16.581Z,10.90
2018-01-22T23:05:44.210Z,12.33
2018-01-22T23:08:12.647Z,15.63
2018-01-22T23:10:40.280Z,10.20
2018-01-22T23:13:07.905Z,9.37
2018-01-22T23:15:35.583Z,11.40
2018-01-22T23:18:04.041Z,12.33
2018-01-22T23:20:31.707Z,15.60
2018-01-22T23:22:59.365Z,10.60
2018-01-22T23:25:27.026Z,10.27
2018-01-22T23:27:54.692Z,7.90
2018-01-22T23:30:22.351Z,11.00
2018-01-22T23:32:50.019Z,10.30
2018-01-22T23:35:17.658Z,10.37
2018-01-22T23:37:46.174Z,11.87
2018-01-22T23:40:14.610Z,11.50
2018-01-22T23:42:42.244Z,12.43
2018-01-22T23:45:09.921Z,9.93
2018-01-22T23:47:37.631Z,13.07
2018-01-22T23:50:05.274Z,13.03
2018-01-22T23:52:32.920Z,11.93
2018-01-22T23:55:00.896Z,10.50
2018-01-22T23:57:28.552Z,12.10
2018-01-22T23:59:56.220Z,13.80
